Time;durP1;ratioP1;P1;durP2;ratioP2;P2;SDS_P1;SDS_P2;PMS_P1;PMS_P2;Temp;Humidity;BMP_temperature;BMP_pressure;BME280_temperature;BME280_humidity;BME280_pressure;Samples;Min_cycle;Max_cycle;Signal;HPM_P1;HPM_P2
2023/04/29 00:01:17;;;;;;;80.35;36.38;;;9.40;99.90;;;;;;5091203;28;20048;-56
2023/04/29 00:03:43;;;;;;;67.30;34.75;;;9.60;99.90;;;;;;5090761;28;20044;-56
2023/04/29 00:06:10;;;;;;;66.38;36.72;;;9.40;99.90;;;;;;5091114;28;20035;-56
2023/04/29 00:08:36;;;;;;;63.40;36.10;;;9.40;99.90;;;;;;5090806;28;20561;-56
2023/04/29 00:11:02;;;;;;;62.35;34.45;;;9.40;99.90;;;;;;5090817;28;20040;-56
2023/04/29 00:13:28;;;;;;;67.90;36.90;;;9.40;99.90;;;;;;5090491;28;20051;-56
2023/04/29 00:15:54;;;;;;;75.28;38.83;;;9.40;99.90;;;;;;5090206;28;20040;-56
2023/04/29 00:18:19;;;;;;;68.88;36.25;;;9.70;99.90;;;;;;5089694;28;20048;-57
2023/04/29 00:20:45;;;;;;;68.72;36.22;;;9.40;99.90;;;;;;5089807;28;20043;-56
2023/04/29 00:23:11;;;;;;;65.50;35.97;;;9.40;99.90;;;;;;5089514;28;20810;-56
2023/04/29 00:25:37;;;;;;;58.60;33.78;;;9.40;99.90;;;;;;5089920;28;20040;-57
2023/04/29 00:28:06;;;;;;;66.78;35.28;;;9.90;99.90;;;;;;5089791;28;20148;-56
2023/04/29 00:30:33;;;;;;;54.22;33.60;;;9.40;99.90;;;;;;5089996;28;20059;-56
2023/04/29 00:32:59;;;;;;;57.85;33.25;;;9.40;99.90;;;;;;5090062;28;20375;-56
2023/04/29 00:35:25;;;;;;;51.20;33.95;;;9.40;99.90;;;;;;5089485;28;20073;-56
2023/04/29 00:37:50;;;;;;;55.38;32.17;;;9.40;99.90;;;;;;5089585;28;20059;-56
2023/04/29 00:40:16;;;;;;;54.65;32.67;;;9.30;99.90;;;;;;5090163;28;20032;-56
2023/04/29 00:42:42;;;;;;;51.13;31.13;;;9.30;99.90;;;;;;5090453;28;20048;-56
2023/04/29 00:45:10;;;;;;;55.95;31.75;;;9.30;99.90;;;;;;5090453;28;20043;-56
2023/04/29 00:47:37;;;;;;;51.25;31.75;;;9.30;99.90;;;;;;5090258;28;20044;-56
2023/04/29 00:50:05;;;;;;;47.85;28.52;;;9.90;99.90;;;;;;5090251;28;20516;-56
2023/04/29 00:52:31;;;;;;;44.50;28.92;;;9.30;99.90;;;;;;5090288;28;20043;-56
2023/04/29 00:54:58;;;;;;;47.08;27.70;;;9.40;99.90;;;;;;5090342;28;20117;-56
2023/04/29 00:57:24;;;;;;;49.97;29.08;;;9.30;99.90;;;;;;5090072;28;20074;-56
2023/04/29 00:59:50;;;;;;;43.92;27.25;;;9.30;99.90;;;;;;5090060;28;20032;-56
2023/04/29 01:02:17;;;;;;;52.50;27.70;;;9.90;99.90;;;;;;5089994;28;20090;-56
2023/04/29 01:04:43;;;;;;;52.83;27.77;;;9.40;99.90;;;;;;5089774;28;20055;-55
2023/04/29 01:07:14;;;;;;;52.20;27.60;;;8.90;99.90;;;;;;5089699;28;20036;-56
2023/04/29 01:09:51;;;;;;;51.15;28.92;;;9.20;99.90;;;;;;5089981;28;20048;-56
2023/04/29 01:12:43;;;;;;;46.45;26.88;;;9.20;99.90;;;;;;5088716;28;20681;-56
2023/04/29 01:15:25;;;;;;;43.58;25.77;;;9.20;99.90;;;;;;5088673;28;20562;-56
2023/04/29 01:18:00;;;;;;;43.47;24.58;;;8.90;99.90;;;;;;5088584;28;20091;-56
2023/04/29 01:20:26;;;;;;;47.97;25.50;;;9.10;99.90;;;;;;5089032;28;20388;-56
2023/04/29 01:22:52;;;;;;;46.63;25.55;;;8.90;99.90;;;;;;5088517;28;20051;-56
2023/04/29 01:25:18;;;;;;;45.50;23.50;;;9.30;99.90;;;;;;5088693;28;20040;-56
2023/04/29 01:28:05;;;;;;;42.40;22.85;;;9.00;99.90;;;;;;5089505;28;20043;-56
2023/04/29 01:30:34;;;;;;;42.58;23.85;;;9.10;99.90;;;;;;5089526;28;20035;-56
2023/04/29 01:33:13;;;;;;;40.97;22.98;;;9.00;99.90;;;;;;5089030;28;20039;-56
2023/04/29 01:36:04;;;;;;;49.03;23.98;;;9.00;99.90;;;;;;5088904;28;20044;-56
2023/04/29 01:38:35;;;;;;;41.42;25.27;;;9.00;99.90;;;;;;5088908;28;20090;-56
2023/04/29 01:41:09;;;;;;;43.28;25.80;;;9.20;99.90;;;;;;5088948;28;20047;-57
2023/04/29 01:43:37;;;;;;;42.75;23.98;;;9.00;99.90;;;;;;5088643;28;20043;-56
2023/04/29 01:46:07;;;;;;;44.35;23.92;;;8.90;99.90;;;;;;5088571;28;20626;-56
2023/04/29 01:48:34;;;;;;;45.28;26.30;;;8.70;99.90;;;;;;5087553;28;20046;-56
2023/04/29 01:51:00;;;;;;;37.35;23.67;;;9.00;99.90;;;;;;5088811;28;20036;-57
2023/04/29 01:53:26;;;;;;;45.67;24.23;;;8.90;99.90;;;;;;5089145;28;20040;-56
2023/04/29 01:55:52;;;;;;;41.45;23.50;;;8.90;99.90;;;;;;5088737;28;20055;-57
2023/04/29 01:58:17;;;;;;;43.17;24.05;;;8.90;99.90;;;;;;5089092;28;20139;-57
2023/04/29 02:00:43;;;;;;;45.78;23.88;;;8.60;99.90;;;;;;5088954;28;20528;-56
2023/04/29 02:03:09;;;;;;;40.80;23.85;;;9.50;99.90;;;;;;5088908;28;20044;-56
2023/04/29 02:05:35;;;;;;;40.45;23.55;;;9.00;99.90;;;;;;5089049;28;20492;-56
2023/04/29 02:08:01;;;;;;;36.92;22.25;;;8.90;99.90;;;;;;5088821;28;20048;-56
2023/04/29 02:10:27;;;;;;;37.13;22.90;;;8.80;99.90;;;;;;5088953;28;20577;-56
2023/04/29 02:12:53;;;;;;;35.53;22.02;;;8.90;99.90;;;;;;5089004;28;20484;-56
2023/04/29 02:15:20;;;;;;;33.42;19.80;;;8.60;99.90;;;;;;5088712;28;20040;-56
2023/04/29 02:17:45;;;;;;;39.97;20.73;;;8.80;99.90;;;;;;5088656;28;20051;-56
2023/04/29 02:20:11;;;;;;;40.67;21.30;;;9.30;99.90;;;;;;5089110;28;20063;-56
2023/04/29 02:22:38;;;;;;;39.25;21.40;;;8.80;99.90;;;;;;5089034;28;20116;-56
2023/04/29 02:25:05;;;;;;;42.55;21.08;;;9.10;99.90;;;;;;5088820;28;20048;-56
2023/04/29 02:27:31;;;;;;;37.58;21.25;;;8.80;99.90;;;;;;5088853;28;20048;-56
2023/04/29 02:29:56;;;;;;;42.22;20.80;;;9.30;99.90;;;;;;5089053;28;20101;-57
2023/04/29 02:32:22;;;;;;;35.90;20.75;;;8.70;99.90;;;;;;5088680;28;20569;-56
2023/04/29 02:34:48;;;;;;;43.17;20.65;;;8.80;99.90;;;;;;5089024;28;20437;-56
2023/04/29 02:37:14;;;;;;;39.60;21.90;;;8.80;99.90;;;;;;5088699;28;20097;-56
2023/04/29 02:39:40;;;;;;;40.58;22.23;;;9.10;99.90;;;;;;5088762;28;20094;-56
2023/04/29 02:42:06;;;;;;;47.55;21.25;;;8.70;99.90;;;;;;5089036;28;20115;-56
2023/04/29 02:44:32;;;;;;;38.60;21.00;;;9.40;99.90;;;;;;5088829;28;20453;-56
2023/04/29 02:46:58;;;;;;;46.30;22.75;;;8.80;99.90;;;;;;5088529;28;20086;-57
2023/04/29 02:49:23;;;;;;;44.58;21.92;;;8.50;99.90;;;;;;5088706;28;20131;-57
2023/04/29 02:51:49;;;;;;;43.65;22.65;;;9.20;99.90;;;;;;5088874;28;20040;-57
2023/04/29 02:54:16;;;;;;;46.38;21.70;;;8.50;99.90;;;;;;5088551;28;20040;-57
2023/04/29 02:56:43;;;;;;;43.47;23.00;;;8.70;99.90;;;;;;5088680;28;20046;-57
2023/04/29 02:59:08;;;;;;;40.20;22.52;;;8.70;99.90;;;;;;5089570;28;20123;-57
2023/04/29 03:01:34;;;;;;;42.47;22.75;;;9.10;99.90;;;;;;5092360;28;20120;-57
2023/04/29 03:04:00;;;;;;;44.10;23.98;;;8.70;99.90;;;;;;5092421;28;20111;-57
2023/04/29 03:06:26;;;;;;;45.85;23.02;;;8.70;99.90;;;;;;5092395;28;20084;-57
2023/04/29 03:08:52;;;;;;;44.78;22.63;;;8.70;99.90;;;;;;5091650;28;20113;-57
2023/04/29 03:11:19;;;;;;;40.55;23.38;;;8.70;99.90;;;;;;5091755;28;20047;-57
2023/04/29 03:13:44;;;;;;;38.47;21.08;;;9.00;99.90;;;;;;5073687;28;20047;-57
2023/04/29 03:16:13;;;;;;;37.17;21.63;;;8.70;99.90;;;;;;5091634;28;20032;-57
2023/04/29 03:18:40;;;;;;;45.90;22.42;;;8.50;99.90;;;;;;5091359;28;20056;-57
2023/04/29 03:21:05;;;;;;;37.92;22.40;;;8.70;99.90;;;;;;5091975;28;20071;-57
2023/04/29 03:23:31;;;;;;;38.92;22.20;;;9.20;99.90;;;;;;5091619;28;20068;-57
2023/04/29 03:25:57;;;;;;;40.30;21.73;;;8.90;99.90;;;;;;5091631;28;20040;-57
2023/04/29 03:28:23;;;;;;;35.90;20.60;;;8.80;99.90;;;;;;5090318;28;20040;-57
2023/04/29 03:30:48;;;;;;;33.10;21.30;;;8.80;99.90;;;;;;5091234;28;20440;-56
2023/04/29 03:33:14;;;;;;;38.95;22.70;;;8.60;99.90;;;;;;5091296;28;20036;-56
2023/04/29 03:35:40;;;;;;;40.63;21.30;;;8.70;99.90;;;;;;5091545;28;20048;-56
2023/04/29 03:38:05;;;;;;;39.60;22.20;;;8.80;99.90;;;;;;5091598;28;20409;-57
2023/04/29 03:40:31;;;;;;;45.10;23.17;;;8.70;99.90;;;;;;5091659;28;20090;-56
2023/04/29 03:42:57;;;;;;;44.60;20.98;;;8.90;99.90;;;;;;5090595;28;20048;-57
2023/04/29 03:45:22;;;;;;;39.95;22.08;;;8.60;99.90;;;;;;5091183;28;20119;-56
2023/04/29 03:47:48;;;;;;;44.60;20.80;;;8.50;99.90;;;;;;5091492;28;20068;-56
2023/04/29 03:50:14;;;;;;;35.33;19.65;;;8.60;99.90;;;;;;5091590;28;20040;-57
2023/04/29 03:52:39;;;;;;;39.28;20.73;;;8.50;99.90;;;;;;5091256;28;20043;-57
2023/04/29 03:55:06;;;;;;;34.70;19.23;;;8.60;99.90;;;;;;5089960;28;20054;-56
2023/04/29 03:57:31;;;;;;;33.17;18.05;;;8.50;99.90;;;;;;5091545;28;20386;-56
2023/04/29 03:59:57;;;;;;;32.75;17.85;;;8.30;99.90;;;;;;5091329;28;20039;-56
2023/04/29 04:02:23;;;;;;;35.28;17.67;;;8.80;99.90;;;;;;5091760;28;20415;-57
2023/04/29 04:04:48;;;;;;;33.47;17.73;;;8.50;99.90;;;;;;5091268;28;20097;-56
2023/04/29 04:07:14;;;;;;;36.72;18.08;;;8.20;99.90;;;;;;5089950;28;20052;-56
2023/04/29 04:09:40;;;;;;;33.90;18.33;;;8.30;99.90;;;;;;5091221;28;20036;-56
2023/04/29 04:12:05;;;;;;;32.38;17.13;;;8.60;99.90;;;;;;5090532;28;20040;-56
2023/04/29 04:14:31;;;;;;;29.42;16.90;;;8.80;99.90;;;;;;5091187;28;20040;-57
2023/04/29 04:16:57;;;;;;;33.75;17.60;;;8.40;99.90;;;;;;5070623;28;20131;-56
2023/04/29 04:19:23;;;;;;;39.90;17.60;;;8.20;99.90;;;;;;5091323;28;20040;-56
2023/04/29 04:21:48;;;;;;;35.83;17.13;;;8.30;99.90;;;;;;5091319;28;20035;-57
2023/04/29 04:24:14;;;;;;;31.25;16.98;;;8.40;99.90;;;;;;5072852;28;20040;-56
2023/04/29 04:26:41;;;;;;;33.72;17.52;;;8.30;99.90;;;;;;5091083;28;20048;-57
2023/04/29 04:29:06;;;;;;;37.70;18.35;;;9.00;99.90;;;;;;5090790;28;20466;-57
2023/04/29 04:31:33;;;;;;;36.80;20.10;;;8.20;99.90;;;;;;5090952;28;20098;-56
2023/04/29 04:33:59;;;;;;;34.55;19.10;;;8.10;99.90;;;;;;5090529;28;20458;-57
2023/04/29 04:36:24;;;;;;;37.08;16.48;;;9.20;99.90;;;;;;5090726;28;20028;-57
2023/04/29 04:38:50;;;;;;;32.70;17.50;;;9.10;99.90;;;;;;5090686;28;20036;-56
2023/04/29 04:41:16;;;;;;;35.58;17.40;;;8.70;99.90;;;;;;5090651;28;20496;-56
2023/04/29 04:43:42;;;;;;;37.53;17.13;;;8.30;99.90;;;;;;5090552;28;20051;-57
2023/04/29 04:46:14;;;;;;;31.70;16.73;;;8.10;99.90;;;;;;5090765;28;20493;-56
2023/04/29 04:48:41;;;;;;;29.13;14.85;;;8.30;99.90;;;;;;5090617;28;20036;-57
2023/04/29 04:51:11;;;;;;;32.17;15.50;;;8.30;99.90;;;;;;5090635;28;20067;-57
2023/04/29 04:53:38;;;;;;;34.00;15.70;;;8.30;99.90;;;;;;5090455;28;20055;-57
2023/04/29 04:56:05;;;;;;;29.27;15.32;;;8.30;99.90;;;;;;5090241;28;20449;-57
2023/04/29 04:58:31;;;;;;;26.35;15.77;;;8.30;99.90;;;;;;5090499;28;20393;-57
2023/04/29 05:00:58;;;;;;;27.17;15.35;;;8.20;99.90;;;;;;5090310;28;20522;-57
2023/04/29 05:03:23;;;;;;;26.48;14.70;;;8.10;99.90;;;;;;5090383;28;20032;-57
2023/04/29 05:05:56;;;;;;;26.25;14.60;;;8.60;99.90;;;;;;5090267;28;20036;-57
2023/04/29 05:08:22;;;;;;;27.70;13.77;;;8.10;99.90;;;;;;5090018;28;20101;-57
2023/04/29 05:10:47;;;;;;;27.15;14.40;;;8.10;99.90;;;;;;5090093;28;20043;-57
2023/04/29 05:13:13;;;;;;;28.35;14.65;;;9.10;99.90;;;;;;5090115;28;20089;-57
2023/04/29 05:15:39;;;;;;;27.70;13.45;;;9.20;99.90;;;;;;5089968;28;20063;-57
2023/04/29 05:18:04;;;;;;;25.95;15.38;;;8.20;99.90;;;;;;5090244;28;20044;-57
2023/04/29 05:20:30;;;;;;;26.83;13.00;;;9.00;99.90;;;;;;5090236;28;20032;-57
2023/04/29 05:22:56;;;;;;;25.48;12.55;;;9.30;99.90;;;;;;5090012;28;20040;-57
2023/04/29 05:25:21;;;;;;;21.95;13.18;;;9.00;99.90;;;;;;5089815;28;20571;-57
2023/04/29 05:27:47;;;;;;;20.02;12.52;;;8.70;99.90;;;;;;5090020;28;20044;-57
2023/04/29 05:30:13;;;;;;;27.60;13.40;;;8.40;99.90;;;;;;5089876;28;20044;-57
2023/04/29 05:32:39;;;;;;;26.95;14.50;;;8.40;99.90;;;;;;5089659;28;20040;-57
2023/04/29 05:35:05;;;;;;;26.63;14.23;;;8.70;99.90;;;;;;5089672;28;20359;-57
2023/04/29 05:37:31;;;;;;;28.25;14.60;;;8.50;99.90;;;;;;5089356;28;20036;-57
2023/04/29 05:39:57;;;;;;;26.70;14.48;;;8.30;99.90;;;;;;5089192;28;20086;-57
2023/04/29 05:42:23;;;;;;;26.13;14.20;;;8.50;99.90;;;;;;5089284;28;20083;-57
2023/04/29 05:44:49;;;;;;;32.92;14.85;;;9.40;99.90;;;;;;5089134;28;20054;-57
2023/04/29 05:47:15;;;;;;;28.67;15.75;;;8.50;99.90;;;;;;5089271;28;20561;-57
2023/04/29 05:49:40;;;;;;;30.33;16.10;;;8.50;99.90;;;;;;5088739;28;20047;-57
2023/04/29 05:52:06;;;;;;;27.25;14.18;;;8.50;99.90;;;;;;5088639;28;20063;-56
2023/04/29 05:54:32;;;;;;;31.88;15.15;;;8.50;99.90;;;;;;5088358;28;20052;-57
2023/04/29 05:57:01;;;;;;;28.00;15.70;;;8.50;99.90;;;;;;5089241;28;20390;-57
2023/04/29 05:59:28;;;;;;;30.90;16.70;;;8.60;99.90;;;;;;5089084;28;20098;-57
2023/04/29 06:01:55;;;;;;;36.00;17.00;;;8.50;99.90;;;;;;5089082;28;20043;-57
2023/04/29 06:04:21;;;;;;;29.52;16.98;;;8.60;99.90;;;;;;5089259;28;20040;-57
2023/04/29 06:06:47;;;;;;;30.67;17.92;;;8.70;99.90;;;;;;5088783;28;20052;-57
2023/04/29 06:09:14;;;;;;;34.38;17.20;;;8.70;99.90;;;;;;5089021;28;20036;-57
2023/04/29 06:11:40;;;;;;;30.63;17.90;;;9.00;99.90;;;;;;5088970;28;20036;-57
2023/04/29 06:14:06;;;;;;;34.25;16.80;;;8.70;99.90;;;;;;5088842;28;20059;-57
2023/04/29 06:16:32;;;;;;;27.85;16.80;;;8.80;99.90;;;;;;5088623;28;20418;-57
2023/04/29 06:18:59;;;;;;;32.08;15.77;;;9.00;99.90;;;;;;5088701;28;20043;-57
2023/04/29 06:21:26;;;;;;;24.85;15.20;;;8.70;99.90;;;;;;5088131;28;20051;-57
2023/04/29 06:23:52;;;;;;;29.63;16.40;;;9.00;99.90;;;;;;5069747;28;20454;-57
2023/04/29 06:26:19;;;;;;;29.98;16.33;;;9.00;99.90;;;;;;5088381;28;20076;-57
2023/04/29 06:28:46;;;;;;;31.17;16.52;;;9.30;99.90;;;;;;5088197;28;20051;-58
2023/04/29 06:31:11;;;;;;;26.48;15.63;;;9.20;99.90;;;;;;5088229;28;20082;-57
2023/04/29 06:33:37;;;;;;;29.42;15.48;;;9.20;99.90;;;;;;5088243;28;20378;-58
2023/04/29 06:36:03;;;;;;;24.92;13.93;;;9.30;99.90;;;;;;5092177;28;20296;-58
2023/04/29 06:38:29;;;;;;;21.90;13.63;;;9.30;99.90;;;;;;5092555;28;20501;-57
2023/04/29 06:40:59;;;;;;;20.95;14.73;;;9.20;99.90;;;;;;5092739;28;20040;-57
2023/04/29 06:43:25;;;;;;;22.40;13.93;;;9.50;99.90;;;;;;5092583;28;20039;-57
2023/04/29 06:45:51;;;;;;;26.30;14.93;;;9.60;99.90;;;;;;5092486;28;20379;-57
2023/04/29 06:48:17;;;;;;;20.42;12.48;;;9.70;99.90;;;;;;5092531;28;20097;-57
2023/04/29 06:50:53;;;;;;;22.35;12.90;;;9.90;99.90;;;;;;5094560;28;20453;-57
2023/04/29 06:53:20;;;;;;;22.75;14.90;;;10.10;99.90;;;;;;5072262;28;20049;-57
2023/04/29 06:55:46;;;;;;;20.60;12.50;;;10.30;99.90;;;;;;5072018;28;20044;-57
2023/04/29 06:58:13;;;;;;;24.20;14.02;;;11.00;99.90;;;;;;5072093;28;20036;-57
2023/04/29 07:00:39;;;;;;;22.27;13.68;;;12.20;99.90;;;;;;5072021;28;20124;-58
2023/04/29 07:03:04;;;;;;;18.52;11.98;;;12.70;99.90;;;;;;5071780;28;20116;-58
2023/04/29 07:05:30;;;;;;;18.02;12.43;;;13.00;99.90;;;;;;5072138;28;20910;-58
2023/04/29 07:07:56;;;;;;;17.67;12.43;;;13.60;99.90;;;;;;5071947;28;20058;-58
2023/04/29 07:10:22;;;;;;;19.30;12.85;;;13.60;99.90;;;;;;5085235;28;20055;-58
2023/04/29 07:12:47;;;;;;;13.35;10.55;;;13.70;99.90;;;;;;5092188;28;20044;-58
2023/04/29 07:15:13;;;;;;;15.55;10.55;;;14.00;99.90;;;;;;5091799;28;20510;-58
2023/04/29 07:17:39;;;;;;;14.52;8.85;;;14.20;99.90;;;;;;5091749;28;20445;-58
2023/04/29 07:20:05;;;;;;;15.13;9.85;;;14.40;99.90;;;;;;5092090;28;20055;-57
2023/04/29 07:22:31;;;;;;;12.85;8.60;;;14.70;99.90;;;;;;5071083;28;20044;-57
2023/04/29 07:24:57;;;;;;;14.88;7.97;;;14.80;99.90;;;;;;5091731;28;20036;-57
2023/04/29 07:27:23;;;;;;;12.60;8.73;;;14.80;99.90;;;;;;5091691;28;20032;-58
2023/04/29 07:29:49;;;;;;;12.50;8.82;;;14.70;99.90;;;;;;5091864;28;20109;-57
2023/04/29 07:32:15;;;;;;;10.43;8.13;;;14.70;99.90;;;;;;5091644;28;20036;-58
2023/04/29 07:34:41;;;;;;;11.13;8.07;;;14.70;99.90;;;;;;5091844;28;20052;-57
2023/04/29 07:37:06;;;;;;;11.55;7.80;;;14.80;99.90;;;;;;5091742;28;20044;-57
2023/04/29 07:39:34;;;;;;;11.43;7.75;;;15.00;99.90;;;;;;5091965;28;20458;-57
2023/04/29 07:42:00;;;;;;;14.40;7.90;;;15.30;99.90;;;;;;5073728;28;20071;-57
2023/04/29 07:44:25;;;;;;;10.35;7.80;;;15.60;99.90;;;;;;5090936;28;20036;-57
2023/04/29 07:46:51;;;;;;;10.13;6.82;;;15.80;99.90;;;;;;5089048;28;20846;-56
2023/04/29 07:49:17;;;;;;;8.82;6.90;;;16.10;99.90;;;;;;5090360;28;20043;-57
2023/04/29 07:51:43;;;;;;;13.57;7.57;;;16.30;99.90;;;;;;5090639;28;20063;-56
2023/04/29 07:54:09;;;;;;;10.85;6.68;;;16.50;99.90;;;;;;5090302;28;20490;-56
2023/04/29 07:56:34;;;;;;;10.50;6.53;;;16.60;99.90;;;;;;5090157;28;20495;-56
2023/04/29 07:59:00;;;;;;;11.80;7.85;;;16.80;99.90;;;;;;5090415;28;20048;-56
2023/04/29 08:01:27;;;;;;;9.93;6.80;;;17.10;99.90;;;;;;5091131;28;20032;-56
2023/04/29 08:03:53;;;;;;;8.95;6.25;;;17.50;99.90;;;;;;5090929;28;20082;-56
2023/04/29 08:06:20;;;;;;;7.30;5.18;;;17.90;99.90;;;;;;5088724;28;20466;-56
2023/04/29 08:08:47;;;;;;;8.18;5.32;;;18.10;99.90;;;;;;5089611;28;20079;-57
2023/04/29 08:11:19;;;;;;;6.28;5.35;;;18.30;99.90;;;;;;5090757;28;20076;-56
2023/04/29 08:13:45;;;;;;;8.52;5.32;;;18.40;99.90;;;;;;5110356;28;20108;-56
2023/04/29 08:16:12;;;;;;;8.02;5.68;;;18.60;99.90;;;;;;5107813;28;21017;-57
2023/04/29 08:18:38;;;;;;;8.93;5.45;;;18.70;99.90;;;;;;5081105;28;20066;-56
2023/04/29 08:21:04;;;;;;;8.07;5.00;;;18.90;99.90;;;;;;5073493;28;20032;-55
2023/04/29 08:23:30;;;;;;;9.07;5.10;;;18.90;99.00;;;;;;5068898;28;20577;-55
2023/04/29 08:25:56;;;;;;;8.85;5.85;;;19.00;98.30;;;;;;5069236;28;20135;-56
2023/04/29 08:28:22;;;;;;;7.78;5.35;;;19.20;98.70;;;;;;5069439;28;20464;-56
2023/04/29 08:30:47;;;;;;;8.40;5.35;;;19.20;98.30;;;;;;5069626;28;20049;-56
2023/04/29 08:33:13;;;;;;;7.10;4.80;;;19.20;98.00;;;;;;5072685;28;20071;-56
2023/04/29 08:35:40;;;;;;;8.43;5.40;;;18.90;97.30;;;;;;5071414;28;20530;-56
2023/04/29 08:38:06;;;;;;;9.25;5.82;;;18.90;96.50;;;;;;5089098;28;20107;-56
2023/04/29 08:40:40;;;;;;;8.68;6.03;;;18.90;97.00;;;;;;5088890;28;20052;-56
2023/04/29 08:43:08;;;;;;;11.77;5.75;;;18.90;96.70;;;;;;5088697;28;20036;-56
2023/04/29 08:45:35;;;;;;;9.52;5.03;;;19.00;96.70;;;;;;5088916;28;20123;-56
2023/04/29 08:48:07;;;;;;;7.20;4.90;;;18.90;95.30;;;;;;5046213;28;20791;-55
2023/04/29 08:50:40;;;;;;;6.63;4.55;;;18.80;94.90;;;;;;5064839;28;20032;-48
2023/04/29 08:53:07;;;;;;;8.13;4.80;;;18.90;95.00;;;;;;5063324;28;20429;-57
2023/04/29 08:55:36;;;;;;;8.20;5.05;;;18.80;95.50;;;;;;5079963;28;20051;-53
2023/04/29 08:58:02;;;;;;;9.57;6.07;;;18.80;95.30;;;;;;5076843;28;20056;-53
2023/04/29 09:00:31;;;;;;;9.98;4.97;;;19.00;95.70;;;;;;5080654;28;20174;-54
2023/04/29 09:02:58;;;;;;;8.07;5.45;;;19.10;94.60;;;;;;5077556;28;20754;-59
2023/04/29 09:05:27;;;;;;;8.40;5.18;;;17.80;94.30;;;;;;5083425;28;20040;-56
2023/04/29 09:07:55;;;;;;;8.07;5.00;;;19.30;95.50;;;;;;5084382;28;20040;-56
2023/04/29 09:10:21;;;;;;;9.32;5.97;;;19.40;95.20;;;;;;5084923;28;20099;-56
2023/04/29 09:12:47;;;;;;;9.43;5.35;;;19.20;95.10;;;;;;5083790;28;20036;-60
2023/04/29 09:15:13;;;;;;;7.78;5.28;;;19.20;94.60;;;;;;5086109;28;20104;-57
2023/04/29 09:17:43;;;;;;;8.90;5.00;;;19.20;95.00;;;;;;5067568;28;20036;-59
2023/04/29 09:20:21;;;;;;;6.13;4.63;;;19.30;94.90;;;;;;5068804;28;20046;-56
2023/04/29 09:23:04;;;;;;;6.75;4.68;;;19.30;93.60;;;;;;5050731;28;20463;-57
2023/04/29 09:25:30;;;;;;;8.10;4.28;;;19.30;93.50;;;;;;5081678;28;20036;-58
2023/04/29 09:27:56;;;;;;;8.30;5.47;;;19.30;93.70;;;;;;5081920;28;20100;-61
2023/04/29 09:30:23;;;;;;;6.15;4.40;;;19.30;93.60;;;;;;5081552;28;20056;-55
2023/04/29 09:33:08;;;;;;;6.05;4.72;;;19.30;93.70;;;;;;5064501;28;20127;-56
2023/04/29 09:35:34;;;;;;;7.32;4.78;;;19.30;92.70;;;;;;5062777;28;20124;-57
2023/04/29 09:38:13;;;;;;;8.25;5.03;;;19.30;93.10;;;;;;5084628;28;20180;-60
2023/04/29 09:40:40;;;;;;;7.47;5.82;;;19.20;92.50;;;;;;5075724;28;20077;-58
2023/04/29 09:43:14;;;;;;;7.72;5.13;;;19.10;92.70;;;;;;5080355;28;20174;-55
2023/04/29 09:45:43;;;;;;;7.85;5.43;;;19.20;92.70;;;;;;5046137;28;20047;-57
2023/04/29 09:48:10;;;;;;;8.13;5.63;;;19.20;93.00;;;;;;5027112;28;20877;-55
2023/04/29 09:50:37;;;;;;;7.78;4.85;;;19.20;93.10;;;;;;5015808;28;20145;-53
2023/04/29 09:53:04;;;;;;;6.80;5.35;;;19.30;92.90;;;;;;5064689;28;20731;-54
2023/04/29 09:55:30;;;;;;;7.63;5.55;;;19.20;91.50;;;;;;5075958;28;20054;-53
2023/04/29 09:57:57;;;;;;;10.38;5.50;;;19.10;93.90;;;;;;5048282;28;20048;-52
2023/04/29 10:00:24;;;;;;;8.15;5.50;;;19.00;93.90;;;;;;5050269;28;20429;-57
2023/04/29 10:02:52;;;;;;;8.35;5.20;;;18.90;93.80;;;;;;5068118;28;20119;-52
2023/04/29 10:05:20;;;;;;;7.60;5.15;;;18.60;91.60;;;;;;5061288;28;20063;-52
2023/04/29 10:07:50;;;;;;;6.15;4.65;;;18.40;94.50;;;;;;5048387;28;20739;-52
2023/04/29 10:10:17;;;;;;;8.88;5.32;;;18.20;92.50;;;;;;5067642;28;20063;-53
2023/04/29 10:12:43;;;;;;;8.13;5.43;;;18.00;92.10;;;;;;5076229;28;20028;-53
2023/04/29 10:15:26;;;;;;;7.63;4.97;;;18.00;91.20;;;;;;5066349;28;20044;-53
2023/04/29 10:18:00;;;;;;;6.82;4.53;;;17.90;90.90;;;;;;5074331;28;20124;-52
2023/04/29 10:20:27;;;;;;;6.75;4.63;;;17.90;91.30;;;;;;5074242;28;20585;-52
2023/04/29 10:22:55;;;;;;;6.47;4.57;;;17.70;91.60;;;;;;5068891;28;20088;-56
2023/04/29 10:25:23;;;;;;;6.97;4.95;;;17.80;91.80;;;;;;5038237;28;20052;-54
2023/04/29 10:27:52;;;;;;;8.85;4.90;;;17.70;91.70;;;;;;5061200;28;20048;-52
2023/04/29 10:30:19;;;;;;;7.38;4.45;;;17.60;91.90;;;;;;5068696;28;20123;-52
2023/04/29 10:32:46;;;;;;;8.70;5.15;;;17.50;92.00;;;;;;5052602;28;20082;-51
2023/04/29 10:35:13;;;;;;;7.63;4.80;;;17.60;92.00;;;;;;5052990;28;20044;-53
2023/04/29 10:37:44;;;;;;;7.13;4.03;;;17.50;92.00;;;;;;5052096;28;20390;-54
2023/04/29 10:40:12;;;;;;;7.93;4.60;;;17.50;91.90;;;;;;5057557;28;20033;-55
2023/04/29 10:42:41;;;;;;;7.72;4.38;;;17.40;91.70;;;;;;5057171;28;20059;-56
2023/04/29 10:45:28;;;;;;;7.13;4.38;;;17.30;90.20;;;;;;5075591;28;20089;-54
2023/04/29 10:48:07;;;;;;;8.93;4.65;;;17.20;90.40;;;;;;5049103;28;20440;-56
2023/04/29 10:50:44;;;;;;;5.60;3.67;;;17.10;90.90;;;;;;5053693;28;20075;-52
2023/04/29 10:53:10;;;;;;;6.15;3.85;;;17.00;91.00;;;;;;5058644;28;20089;-52
2023/04/29 10:55:37;;;;;;;9.02;4.30;;;16.90;91.00;;;;;;5076270;28;20709;-53
2023/04/29 10:58:04;;;;;;;8.18;4.85;;;16.80;90.30;;;;;;5051632;28;20037;-54
2023/04/29 11:00:33;;;;;;;7.40;4.53;;;16.60;89.40;;;;;;5040067;28;20048;-52
2023/04/29 11:03:00;;;;;;;8.10;5.22;;;16.50;90.50;;;;;;5052388;28;20112;-54
2023/04/29 11:05:33;;;;;;;6.60;3.85;;;16.70;91.10;;;;;;5060613;28;20093;-53
2023/04/29 11:08:12;;;;;;;9.35;4.07;;;16.30;91.50;;;;;;5063980;28;20444;-53
2023/04/29 11:10:42;;;;;;;6.53;4.10;;;16.30;91.40;;;;;;5076124;28;20044;-54
2023/04/29 11:13:25;;;;;;;7.50;4.10;;;16.30;91.40;;;;;;5060511;28;20041;-58
2023/04/29 11:16:10;;;;;;;7.57;4.50;;;16.20;90.90;;;;;;5066006;28;20039;-53
2023/04/29 11:19:03;;;;;;;10.55;4.15;;;16.20;91.00;;;;;;5075907;28;20343;-53
2023/04/29 11:21:29;;;;;;;;;;;16.00;86.30;;;;;;5079424;28;20028;-52
2023/04/29 11:23:56;;;;;;;6.68;3.55;;;16.00;91.10;;;;;;5077473;28;19916;-53
2023/04/29 11:26:23;;;;;;;6.35;3.95;;;15.80;90.50;;;;;;5069274;28;20371;-52
2023/04/29 11:28:51;;;;;;;9.25;4.05;;;15.80;90.80;;;;;;5053754;28;20048;-53
2023/04/29 11:31:16;;;;;;;5.90;4.07;;;15.70;90.80;;;;;;5051415;28;20368;-53
2023/04/29 11:33:42;;;;;;;10.52;5.22;;;15.70;90.90;;;;;;5055217;28;20172;-54
2023/04/29 11:36:10;;;;;;;5.18;3.22;;;15.70;91.00;;;;;;5037382;28;20079;-51
2023/04/29 11:38:40;;;;;;;6.38;3.33;;;15.60;90.40;;;;;;5075351;28;20044;-52
2023/04/29 11:41:06;;;;;;;6.65;4.05;;;15.50;91.00;;;;;;5080434;28;20039;-54
2023/04/29 11:43:31;;;;;;;10.60;3.58;;;15.60;91.10;;;;;;5054316;28;20080;-52
2023/04/29 11:45:57;;;;;;;6.88;3.92;;;15.50;91.10;;;;;;5078346;28;20138;-52
2023/04/29 11:48:26;;;;;;;8.75;4.60;;;15.60;91.40;;;;;;5042329;28;20055;-52
2023/04/29 11:50:58;;;;;;;7.82;4.07;;;15.60;91.70;;;;;;5051222;28;20177;-52
2023/04/29 11:53:26;;;;;;;6.25;4.00;;;15.60;91.50;;;;;;5062704;28;20032;-50
2023/04/29 11:55:53;;;;;;;8.02;3.88;;;15.70;91.30;;;;;;5054041;28;20043;-54
2023/04/29 11:58:22;;;;;;;8.15;3.67;;;15.60;91.50;;;;;;5077213;28;20032;-54
2023/04/29 12:00:49;;;;;;;5.82;3.00;;;15.70;91.60;;;;;;5043818;28;20044;-56
2023/04/29 12:03:20;;;;;;;7.05;3.13;;;15.60;91.10;;;;;;5077464;28;20089;-56
2023/04/29 12:05:53;;;;;;;4.77;2.67;;;15.90;91.30;;;;;;5057013;28;20032;-56
2023/04/29 12:08:27;;;;;;;6.90;2.70;;;15.50;91.40;;;;;;5061550;28;20665;-60
2023/04/29 12:10:58;;;;;;;6.03;2.78;;;15.50;90.80;;;;;;5076163;28;20020;-56
2023/04/29 12:13:26;;;;;;;4.90;2.72;;;15.50;90.40;;;;;;5078269;28;20599;-56
2023/04/29 12:15:52;;;;;;;3.45;2.30;;;15.50;90.40;;;;;;5063992;28;20064;-56
2023/04/29 12:18:21;;;;;;;4.95;1.98;;;15.40;90.40;;;;;;5059535;28;20155;-58
2023/04/29 12:20:47;;;;;;;5.30;1.73;;;15.40;90.30;;;;;;5077096;28;20046;-56
2023/04/29 12:23:18;;;;;;;5.32;1.48;;;15.40;90.30;;;;;;5077479;28;20534;-54
2023/04/29 12:26:07;;;;;;;2.53;1.65;;;15.40;89.90;;;;;;5070807;28;20044;-56
2023/04/29 12:28:33;;;;;;;3.92;1.42;;;15.40;90.10;;;;;;5042315;28;20055;-58
2023/04/29 12:31:00;;;;;;;3.88;1.77;;;15.40;90.20;;;;;;5071119;28;20591;-56
2023/04/29 12:33:28;;;;;;;3.83;1.10;;;15.30;89.40;;;;;;5075929;28;20137;-56
2023/04/29 12:35:56;;;;;;;3.20;1.50;;;15.40;93.60;;;;;;5063775;28;20170;-59
2023/04/29 12:38:30;;;;;;;4.40;1.92;;;15.40;94.40;;;;;;5077695;28;20036;-59
2023/04/29 12:40:58;;;;;;;4.78;1.98;;;15.30;93.00;;;;;;5069793;28;20047;-60
2023/04/29 12:43:28;;;;;;;3.40;1.70;;;15.40;92.10;;;;;;5054065;28;20481;-56